createdAt,value
2019-03-31T00:02:17.659Z,152.23
2019-03-31T00:04:48.690Z,160.00
2019-03-31T00:07:19.988Z,147.30
2019-03-31T00:09:49.925Z,146.33
2019-03-31T00:12:20.915Z,140.00
2019-03-31T00:14:51.529Z,138.33
2019-03-31T00:17:21.407Z,148.13
2019-03-31T00:19:51.758Z,141.83
2019-03-31T00:22:21.715Z,145.17
2019-03-31T00:24:53.616Z,142.00
2019-03-31T00:27:24.853Z,154.00
2019-03-31T00:29:54.775Z,148.50
2019-03-31T00:32:25.079Z,147.60
2019-03-31T00:34:55.345Z,147.00
2019-03-31T00:37:25.645Z,153.47
2019-03-31T00:39:55.545Z,149.57
2019-03-31T00:42:25.923Z,152.13
2019-03-31T00:44:55.821Z,152.10
2019-03-31T00:47:26.865Z,149.30
2019-03-31T00:49:57.729Z,156.73
2019-03-31T00:52:27.700Z,132.33
2019-03-31T00:54:57.593Z,153.57
2019-03-31T00:57:28.153Z,152.93
2019-03-31T00:59:58.876Z,135.40
2019-03-31T01:02:31.742Z,139.43
2019-03-31T01:05:02.370Z,154.23
2019-03-31T01:07:33.121Z,153.97
2019-03-31T01:10:03.910Z,149.50
2019-03-31T01:12:34.337Z,146.70
2019-03-31T01:15:07.970Z,150.10
2019-03-31T01:17:38.914Z,153.50
2019-03-31T01:20:09.905Z,142.57
2019-03-31T01:22:39.789Z,150.57
2019-03-31T01:25:11.110Z,155.73
2019-03-31T01:27:41.398Z,140.40
2019-03-31T01:30:12.779Z,145.77
2019-03-31T01:32:43.398Z,145.83
2019-03-31T01:35:14.693Z,149.90
2019-03-31T01:37:44.674Z,151.50
2019-03-31T01:40:15.069Z,147.93
2019-03-31T01:42:45.753Z,150.70
2019-03-31T01:45:15.852Z,136.83
2019-03-31T01:47:46.473Z,149.80
2019-03-31T01:50:17.916Z,150.63
2019-03-31T01:52:48.250Z,133.40
2019-03-31T01:55:18.993Z,132.63
2019-03-31T01:57:49.240Z,141.60
2019-03-31T02:00:37.369Z,150.67
2019-03-31T02:03:07.299Z,137.43
2019-03-31T02:05:38.138Z,136.47
2019-03-31T02:08:08.777Z,141.63
2019-03-31T02:10:39.322Z,137.97
2019-03-31T02:13:09.731Z,130.57
2019-03-31T02:15:39.957Z,138.60
2019-03-31T02:18:10.885Z,141.37
2019-03-31T02:20:41.723Z,131.87
2019-03-31T02:23:11.921Z,135.40
2019-03-31T02:25:42.577Z,146.63
2019-03-31T02:28:12.753Z,137.73
2019-03-31T02:30:43.193Z,138.43
2019-03-31T02:33:13.875Z,135.83
2019-03-31T02:35:43.878Z,142.27
2019-03-31T02:38:14.094Z,145.60
2019-03-31T02:40:44.077Z,154.50
2019-03-31T02:43:14.034Z,139.13
2019-03-31T02:45:45.419Z,136.87
2019-03-31T02:48:15.794Z,133.27
2019-03-31T02:50:48.404Z,131.33
2019-03-31T02:53:19.669Z,131.53
2019-03-31T02:55:50.009Z,132.10
2019-03-31T02:58:20.830Z,137.83
2019-03-31T03:00:51.567Z,134.43
2019-03-31T03:03:22.525Z,136.17
2019-03-31T03:05:54.523Z,135.53
2019-03-31T03:08:27.009Z,139.73
2019-03-31T03:10:59.810Z,134.27
2019-03-31T03:13:32.831Z,139.17
2019-03-31T03:16:28.614Z,141.07
2019-03-31T03:18:58.848Z,125.37
2019-03-31T03:21:28.952Z,130.90
2019-03-31T03:23:59.494Z,141.03
2019-03-31T03:26:30.128Z,147.53
2019-03-31T03:29:00.178Z,142.13
2019-03-31T03:31:30.599Z,140.80
2019-03-31T03:34:00.532Z,139.67
2019-03-31T03:36:31.223Z,147.43
2019-03-31T03:39:01.846Z,127.10
2019-03-31T03:41:32.581Z,126.73
2019-03-31T03:44:02.985Z,135.07
2019-03-31T03:46:33.793Z,130.53
2019-03-31T03:49:03.757Z,128.20
2019-03-31T03:51:34.911Z,123.00
2019-03-31T03:54:05.539Z,117.97
2019-03-31T03:56:36.137Z,122.93
2019-03-31T03:59:06.402Z,112.17
2019-03-31T04:01:37.437Z,117.80
2019-03-31T04:04:07.762Z,125.83
2019-03-31T04:06:38.865Z,121.33
2019-03-31T04:09:09.377Z,113.30
2019-03-31T04:11:40.096Z,115.63
2019-03-31T04:14:10.777Z,100.83
2019-03-31T04:16:41.771Z,117.73
2019-03-31T04:19:12.274Z,120.80
2019-03-31T04:21:42.516Z,120.97
2019-03-31T04:24:13.500Z,107.50
2019-03-31T04:26:44.409Z,99.87
2019-03-31T04:29:15.041Z,93.40
2019-03-31T04:31:44.977Z,90.93
2019-03-31T04:34:15.569Z,89.17
2019-03-31T04:36:46.165Z,90.10
2019-03-31T04:39:16.510Z,83.40
2019-03-31T04:41:46.953Z,85.97
2019-03-31T04:44:17.603Z,75.67
2019-03-31T04:46:48.670Z,92.40
2019-03-31T04:49:19.030Z,85.43
2019-03-31T04:51:49.376Z,83.47
2019-03-31T04:54:19.741Z,88.57
2019-03-31T04:56:49.948Z,90.23
2019-03-31T04:59:20.322Z,82.17
2019-03-31T05:01:50.575Z,96.07
2019-03-31T05:04:21.456Z,81.13
2019-03-31T05:06:51.810Z,93.00
2019-03-31T05:09:22.485Z,91.17
2019-03-31T05:11:53.101Z,87.20
2019-03-31T05:14:23.382Z,85.70
2019-03-31T05:16:53.617Z,80.47
2019-03-31T05:19:23.986Z,83.07
2019-03-31T05:21:54.362Z,83.30
2019-03-31T05:24:25.497Z,83.00
2019-03-31T05:26:55.703Z,84.40
2019-03-31T05:29:25.826Z,81.93
2019-03-31T05:31:56.076Z,87.40
2019-03-31T05:34:26.242Z,78.53
2019-03-31T05:36:56.543Z,80.40
2019-03-31T05:39:27.429Z,83.73
2019-03-31T05:41:58.054Z,84.43
2019-03-31T05:44:28.007Z,82.13
2019-03-31T05:46:57.942Z,77.47
2019-03-31T05:49:28.834Z,79.03
2019-03-31T05:51:59.387Z,76.13
2019-03-31T05:54:29.265Z,74.27
2019-03-31T05:56:59.220Z,78.97
2019-03-31T05:59:30.125Z,74.40
2019-03-31T06:02:00.401Z,62.10
2019-03-31T06:04:33.421Z,82.07
2019-03-31T06:07:03.502Z,78.33
2019-03-31T06:09:33.508Z,80.17
2019-03-31T06:12:03.586Z,70.30
2019-03-31T06:14:34.201Z,73.57
2019-03-31T06:17:04.885Z,81.23
2019-03-31T06:19:35.488Z,72.83
2019-03-31T06:22:05.732Z,74.10
2019-03-31T06:24:36.548Z,67.00
2019-03-31T06:27:07.409Z,76.03
2019-03-31T06:29:37.373Z,76.97
2019-03-31T06:32:07.602Z,73.73
2019-03-31T06:34:47.241Z,76.83
2019-03-31T06:37:10.341Z,72.40
2019-03-31T06:39:40.758Z,77.40
2019-03-31T06:42:11.506Z,76.40
2019-03-31T06:44:41.872Z,63.80
2019-03-31T06:47:12.356Z,68.43
2019-03-31T06:49:42.986Z,64.03
2019-03-31T06:52:13.936Z,65.97
2019-03-31T06:54:44.663Z,60.40
2019-03-31T06:57:14.537Z,66.03
2019-03-31T06:59:45.605Z,70.03
2019-03-31T07:02:15.766Z,63.80
2019-03-31T07:05:00.222Z,63.90
2019-03-31T07:07:18.891Z,62.47
2019-03-31T07:09:49.181Z,67.53
2019-03-31T07:12:19.787Z,58.70
2019-03-31T07:14:50.453Z,58.80
2019-03-31T07:17:20.356Z,59.33
2019-03-31T07:19:50.429Z,54.13
2019-03-31T07:22:24.258Z,52.43
2019-03-31T07:24:53.156Z,57.70
2019-03-31T07:27:23.962Z,51.63
2019-03-31T07:29:54.312Z,49.53
2019-03-31T07:32:24.189Z,52.93
2019-03-31T07:34:54.882Z,51.53
2019-03-31T07:37:25.181Z,50.07
2019-03-31T07:39:55.170Z,50.87
2019-03-31T07:42:25.272Z,48.97
2019-03-31T07:44:55.670Z,39.90
2019-03-31T07:47:25.932Z,46.60
2019-03-31T07:49:56.201Z,43.10
2019-03-31T07:52:26.835Z,42.33
2019-03-31T07:54:57.186Z,44.53
2019-03-31T07:57:28.210Z,41.67
2019-03-31T07:59:58.802Z,45.73
2019-03-31T08:02:30.322Z,36.83
2019-03-31T08:05:01.219Z,39.20
2019-03-31T08:07:32.100Z,37.13
2019-03-31T08:10:02.617Z,39.40
2019-03-31T08:12:32.930Z,38.70
2019-03-31T08:15:03.649Z,30.30
2019-03-31T08:17:33.932Z,42.70
2019-03-31T08:20:04.639Z,39.77
2019-03-31T08:22:34.828Z,39.73
2019-03-31T08:25:05.619Z,32.53
2019-03-31T08:27:36.333Z,39.83
2019-03-31T08:30:09.073Z,43.50
2019-03-31T08:32:39.624Z,44.30
2019-03-31T08:35:10.707Z,42.90
2019-03-31T08:37:41.359Z,31.63
2019-03-31T08:40:13.019Z,38.17
2019-03-31T08:42:43.321Z,33.50
2019-03-31T08:45:13.380Z,38.10
2019-03-31T08:47:43.617Z,34.70
2019-03-31T08:50:14.150Z,40.57
2019-03-31T08:52:44.614Z,41.57
2019-03-31T08:55:16.183Z,40.60
2019-03-31T08:57:46.905Z,41.60
2019-03-31T09:00:34.168Z,33.20
2019-03-31T09:03:04.206Z,38.63
2019-03-31T09:05:34.474Z,42.47
2019-03-31T09:08:05.525Z,35.67
2019-03-31T09:10:36.258Z,40.77
2019-03-31T09:13:06.754Z,39.00
2019-03-31T09:15:37.081Z,40.90
2019-03-31T09:18:07.711Z,41.63
2019-03-31T09:20:38.381Z,44.57
2019-03-31T09:23:08.582Z,41.40
2019-03-31T09:25:39.494Z,43.60
2019-03-31T09:28:09.483Z,37.03
2019-03-31T09:30:39.406Z,44.60
2019-03-31T09:33:09.651Z,46.90
2019-03-31T09:35:39.521Z,45.17
2019-03-31T09:38:10.307Z,51.80
2019-03-31T09:40:40.258Z,46.83
2019-03-31T09:43:11.630Z,42.53
2019-03-31T09:45:42.258Z,47.60
2019-03-31T09:48:12.776Z,48.73
2019-03-31T09:50:43.439Z,45.50
2019-03-31T09:53:13.901Z,36.93
2019-03-31T09:55:44.788Z,43.90
2019-03-31T09:58:15.198Z,40.17
2019-03-31T10:00:50.314Z,38.80
2019-03-31T10:03:21.070Z,41.67
2019-03-31T10:05:51.293Z,43.13
2019-03-31T10:08:22.453Z,44.70
2019-03-31T10:10:52.781Z,42.10
2019-03-31T10:13:22.728Z,37.63
2019-03-31T10:15:53.783Z,41.00
2019-03-31T10:18:24.037Z,44.80
2019-03-31T10:20:54.617Z,43.30
2019-03-31T10:23:24.586Z,37.00
2019-03-31T10:25:54.937Z,44.83
2019-03-31T10:28:25.156Z,41.97
2019-03-31T10:30:55.072Z,41.70
2019-03-31T10:33:25.987Z,39.17
2019-03-31T10:35:55.871Z,43.13
2019-03-31T10:38:29.232Z,45.40
2019-03-31T10:40:59.079Z,44.50
2019-03-31T10:43:29.025Z,45.13
2019-03-31T10:45:59.585Z,36.93
2019-03-31T10:48:30.176Z,39.90
2019-03-31T10:51:01.273Z,50.23
2019-03-31T10:53:31.903Z,36.50
2019-03-31T10:56:02.271Z,42.07
2019-03-31T10:58:32.577Z,42.10
2019-03-31T11:01:02.787Z,46.30
2019-03-31T11:03:33.371Z,38.70
2019-03-31T11:06:03.935Z,42.13
2019-03-31T11:08:34.230Z,48.33
2019-03-31T11:11:04.944Z,32.80
2019-03-31T11:13:35.249Z,56.90
2019-03-31T11:16:05.486Z,43.93
2019-03-31T11:18:35.685Z,47.03
2019-03-31T11:21:12.753Z,49.13
2019-03-31T11:23:43.297Z,43.90
2019-03-31T11:26:13.994Z,49.17
2019-03-31T11:28:44.617Z,51.13
2019-03-31T11:31:17.822Z,46.93
2019-03-31T11:33:47.124Z,47.97
2019-03-31T11:36:17.787Z,39.73
2019-03-31T11:38:48.095Z,43.23
2019-03-31T11:41:18.405Z,42.60
2019-03-31T11:43:48.785Z,52.17
2019-03-31T11:46:19.053Z,52.33
2019-03-31T11:48:49.613Z,43.70
2019-03-31T11:51:20.893Z,43.37
2019-03-31T11:53:51.709Z,45.40
2019-03-31T11:56:22.431Z,42.93
2019-03-31T11:58:52.849Z,44.60
2019-03-31T12:01:23.069Z,41.17
2019-03-31T12:03:53.229Z,39.97
2019-03-31T12:06:23.654Z,39.60
2019-03-31T12:08:53.875Z,42.47
2019-03-31T12:11:24.428Z,43.47
2019-03-31T12:13:54.382Z,38.40
2019-03-31T12:16:24.696Z,43.23
2019-03-31T12:18:55.448Z,38.33
2019-03-31T12:21:25.705Z,46.33
2019-03-31T12:23:55.800Z,45.00
2019-03-31T12:26:25.778Z,38.80
2019-03-31T12:28:56.372Z,41.97
2019-03-31T12:31:27.329Z,40.63
2019-03-31T12:33:57.637Z,44.30
2019-03-31T12:36:27.988Z,45.47
2019-03-31T12:38:58.800Z,44.37
2019-03-31T12:41:29.018Z,42.37
2019-03-31T12:43:59.493Z,46.33
2019-03-31T12:46:29.729Z,38.03
2019-03-31T12:49:00.317Z,47.13
2019-03-31T12:51:30.828Z,45.23
2019-03-31T12:54:01.889Z,45.03
2019-03-31T12:56:32.833Z,45.83
2019-03-31T12:59:03.189Z,43.47
2019-03-31T13:01:33.523Z,47.37
2019-03-31T13:04:04.117Z,47.43
2019-03-31T13:06:34.589Z,46.17
2019-03-31T13:09:06.709Z,44.43
2019-03-31T13:11:37.441Z,39.73
2019-03-31T13:14:07.559Z,46.67
2019-03-31T13:16:38.192Z,47.20
2019-03-31T13:19:08.786Z,52.33
2019-03-31T13:21:39.488Z,38.30
2019-03-31T13:24:10.189Z,45.43
2019-03-31T13:26:40.519Z,47.30
2019-03-31T13:29:11.757Z,49.50
2019-03-31T13:31:42.339Z,46.30
2019-03-31T13:34:12.979Z,45.50
2019-03-31T13:36:42.930Z,43.23
2019-03-31T13:39:13.489Z,51.37
2019-03-31T13:41:47.059Z,45.57
2019-03-31T13:44:16.393Z,35.30
2019-03-31T13:46:46.989Z,41.60
2019-03-31T13:49:17.932Z,47.37
2019-03-31T13:51:48.269Z,47.67
2019-03-31T13:54:18.546Z,42.93
2019-03-31T13:56:50.154Z,46.53
2019-03-31T13:59:20.570Z,44.90
2019-03-31T14:01:51.168Z,54.33
2019-03-31T14:04:21.213Z,43.40
2019-03-31T14:06:52.093Z,50.40
2019-03-31T14:09:22.047Z,42.00
2019-03-31T14:11:51.939Z,40.07
2019-03-31T14:14:22.273Z,52.20
2019-03-31T14:16:52.645Z,40.40
2019-03-31T14:19:23.037Z,36.80
2019-03-31T14:21:52.963Z,39.90
2019-03-31T14:24:26.786Z,31.53
2019-03-31T14:26:55.989Z,28.57
2019-03-31T14:29:26.516Z,34.13
2019-03-31T14:31:57.118Z,29.13
2019-03-31T14:34:27.463Z,35.90
2019-03-31T14:36:57.666Z,26.27
2019-03-31T14:39:27.969Z,26.50
2019-03-31T14:41:58.252Z,22.60
2019-03-31T14:44:28.597Z,22.37
2019-03-31T14:46:58.997Z,23.97
2019-03-31T14:49:29.849Z,22.63
2019-03-31T14:52:01.471Z,15.67
2019-03-31T14:54:32.026Z,16.97
2019-03-31T14:57:02.487Z,25.10
2019-03-31T14:59:33.125Z,17.53
2019-03-31T15:02:03.780Z,20.30
2019-03-31T15:04:34.153Z,22.10
2019-03-31T15:07:04.550Z,17.63
2019-03-31T15:09:34.851Z,19.40
2019-03-31T15:12:05.369Z,19.73
2019-03-31T15:14:35.994Z,19.90
2019-03-31T15:17:06.661Z,14.30
2019-03-31T15:19:37.304Z,20.10
2019-03-31T15:22:08.292Z,17.27
2019-03-31T15:24:39.020Z,21.90
2019-03-31T15:27:09.757Z,18.87
2019-03-31T15:29:39.970Z,15.03
2019-03-31T15:32:10.733Z,20.40
2019-03-31T15:34:41.410Z,17.73
2019-03-31T15:37:12.102Z,17.50
2019-03-31T15:39:42.829Z,15.87
2019-03-31T15:42:13.133Z,16.30
2019-03-31T15:44:43.008Z,19.97
2019-03-31T15:47:13.188Z,14.53
2019-03-31T15:49:44.226Z,13.33
2019-03-31T15:52:14.605Z,16.40
2019-03-31T15:54:45.228Z,9.20
2019-03-31T15:57:15.505Z,15.37
2019-03-31T15:59:55.673Z,12.93
2019-03-31T16:02:27.060Z,11.10
2019-03-31T16:04:57.757Z,12.97
2019-03-31T16:07:27.983Z,11.83
2019-03-31T16:09:57.847Z,12.30
2019-03-31T16:12:27.718Z,7.50
2019-03-31T16:14:59.617Z,8.60
2019-03-31T16:17:29.700Z,9.97
2019-03-31T16:19:59.905Z,10.50
2019-03-31T16:22:29.568Z,9.57
2019-03-31T16:25:00.777Z,9.80
2019-03-31T16:27:31.161Z,7.47
2019-03-31T16:30:00.878Z,6.33
2019-03-31T16:32:30.676Z,6.70
2019-03-31T16:35:00.758Z,8.70
2019-03-31T16:37:31.140Z,7.90
2019-03-31T16:40:01.189Z,8.17
2019-03-31T16:42:30.787Z,9.37
2019-03-31T16:45:00.609Z,4.87
2019-03-31T16:47:30.609Z,8.40
2019-03-31T16:50:01.037Z,7.87
2019-03-31T16:52:31.388Z,6.03
2019-03-31T16:55:01.127Z,5.37
2019-03-31T16:57:31.061Z,7.20
2019-03-31T17:00:00.512Z,6.80
2019-03-31T17:02:29.854Z,6.03
2019-03-31T17:05:00.355Z,7.17
2019-03-31T17:07:30.391Z,6.87
2019-03-31T17:09:59.780Z,7.00
2019-03-31T17:12:29.708Z,8.80
2019-03-31T17:14:59.441Z,8.70
2019-03-31T17:17:29.138Z,9.57
2019-03-31T17:19:59.133Z,11.07
2019-03-31T17:22:29.267Z,8.70
2019-03-31T17:24:59.409Z,18.93
2019-03-31T17:27:29.027Z,7.80
2019-03-31T17:29:58.420Z,8.03
2019-03-31T17:32:28.193Z,8.73
2019-03-31T17:34:58.313Z,7.43
2019-03-31T17:37:28.066Z,8.30
2019-03-31T17:40:05.982Z,8.10
2019-03-31T17:42:29.716Z,5.50
2019-03-31T17:44:59.579Z,10.50
2019-03-31T17:47:29.702Z,9.13
2019-03-31T17:49:59.309Z,6.43
2019-03-31T17:52:29.607Z,7.70
2019-03-31T17:54:59.957Z,7.57
2019-03-31T17:57:29.741Z,7.93
2019-03-31T18:00:00.051Z,5.77
2019-03-31T18:02:29.942Z,10.43
2019-03-31T18:05:00.545Z,6.13
2019-03-31T18:07:30.317Z,7.13
2019-03-31T18:10:00.377Z,5.87
2019-03-31T18:12:30.558Z,6.37
2019-03-31T18:14:59.881Z,6.63
2019-03-31T18:17:29.269Z,8.33
2019-03-31T18:19:59.369Z,9.60
2019-03-31T18:22:29.107Z,10.33
2019-03-31T18:24:58.753Z,9.73
2019-03-31T18:27:29.461Z,8.63
2019-03-31T18:29:59.933Z,6.70
2019-03-31T18:32:29.577Z,8.47
2019-03-31T18:34:59.300Z,5.60
2019-03-31T18:37:29.800Z,6.03
2019-03-31T18:39:59.818Z,6.23
2019-03-31T18:42:29.922Z,7.57
2019-03-31T18:44:59.876Z,11.47
2019-03-31T18:47:30.289Z,14.30
2019-03-31T18:50:00.489Z,8.97
2019-03-31T18:52:29.845Z,10.80
2019-03-31T18:55:12.333Z,8.63
2019-03-31T18:58:00.981Z,9.20
2019-03-31T19:01:08.169Z,7.20
2019-03-31T19:03:56.545Z,7.00
2019-03-31T19:06:34.574Z,10.43
2019-03-31T19:09:39.542Z,5.10
2019-03-31T19:12:40.313Z,5.40
2019-03-31T19:15:27.437Z,7.63
2019-03-31T19:18:05.624Z,6.83
2019-03-31T19:20:53.086Z,7.53
2019-03-31T19:23:45.021Z,4.50
2019-03-31T19:26:48.531Z,7.43
2019-03-31T19:29:31.747Z,4.40
2019-03-31T19:32:20.414Z,6.83
2019-03-31T19:34:57.586Z,4.43
2019-03-31T19:37:52.700Z,7.83
2019-03-31T19:40:41.520Z,4.80
2019-03-31T19:43:36.516Z,6.87
2019-03-31T19:46:33.694Z,8.90
2019-03-31T19:49:28.146Z,8.53
2019-03-31T19:52:28.481Z,6.77
2019-03-31T19:55:15.845Z,9.10
2019-03-31T19:58:04.989Z,12.57
2019-03-31T20:01:02.881Z,12.90
2019-03-31T20:03:49.981Z,9.20
2019-03-31T20:06:44.813Z,9.80
2019-03-31T20:09:34.070Z,8.10
2019-03-31T20:12:16.359Z,13.80
2019-03-31T20:15:07.967Z,10.50
2019-03-31T20:17:47.243Z,10.50
2019-03-31T20:20:29.153Z,11.33
2019-03-31T20:23:29.320Z,11.70
2019-03-31T20:26:16.102Z,11.60
2019-03-31T20:29:10.550Z,11.10
2019-03-31T20:32:02.434Z,11.03
2019-03-31T20:34:57.619Z,6.33
2019-03-31T20:37:45.746Z,11.40
2019-03-31T20:40:22.758Z,7.53
2019-03-31T20:43:09.962Z,10.13
2019-03-31T20:45:40.067Z,16.83
2019-03-31T20:48:09.720Z,8.27
2019-03-31T20:50:39.865Z,8.60
2019-03-31T20:53:09.523Z,7.83
2019-03-31T20:55:39.494Z,5.83
2019-03-31T20:58:09.925Z,6.00
2019-03-31T21:00:40.058Z,8.63
2019-03-31T21:03:09.868Z,5.30
2019-03-31T21:05:40.173Z,10.40
2019-03-31T21:08:10.237Z,7.60
2019-03-31T21:10:39.894Z,8.03
2019-03-31T21:13:09.597Z,7.23
2019-03-31T21:15:39.673Z,7.03
2019-03-31T21:18:09.721Z,7.03
2019-03-31T21:20:39.235Z,7.10
2019-03-31T21:23:08.548Z,5.03
2019-03-31T21:25:38.293Z,5.00
2019-03-31T21:28:07.865Z,12.83
2019-03-31T21:30:38.673Z,8.30
2019-03-31T21:33:08.630Z,11.20
2019-03-31T21:35:38.234Z,2.87
2019-03-31T21:38:07.933Z,8.00
2019-03-31T21:40:37.683Z,6.70
2019-03-31T21:43:07.853Z,7.10
2019-03-31T21:45:38.741Z,6.50
2019-03-31T21:48:08.451Z,10.17
2019-03-31T21:50:37.822Z,8.30
2019-03-31T21:53:07.460Z,2.80
2019-03-31T21:55:37.449Z,7.17
2019-03-31T21:58:07.137Z,6.37
2019-03-31T22:00:52.440Z,7.90
2019-03-31T22:03:22.174Z,7.03
2019-03-31T22:05:52.304Z,6.87
2019-03-31T22:08:22.310Z,5.23
2019-03-31T22:10:52.029Z,6.43
2019-03-31T22:13:21.511Z,6.70
2019-03-31T22:15:51.187Z,11.40
2019-03-31T22:18:21.101Z,6.83
2019-03-31T22:20:50.453Z,5.67
2019-03-31T22:23:19.904Z,8.50
2019-03-31T22:25:50.181Z,6.03
2019-03-31T22:28:19.789Z,6.53
2019-03-31T22:30:49.549Z,8.40
2019-03-31T22:33:19.181Z,7.90
2019-03-31T22:36:07.225Z,7.90
2019-03-31T22:38:36.566Z,6.27
2019-03-31T22:41:06.265Z,7.27
2019-03-31T22:43:36.293Z,8.10
2019-03-31T22:46:06.249Z,5.57
2019-03-31T22:48:35.954Z,8.50
2019-03-31T22:51:05.676Z,7.73
2019-03-31T22:53:35.722Z,14.17
2019-03-31T22:56:06.194Z,9.50
2019-03-31T22:58:36.587Z,6.67
2019-03-31T23:01:06.237Z,9.63
2019-03-31T23:03:35.877Z,8.07
2019-03-31T23:06:05.264Z,5.20
2019-03-31T23:08:35.009Z,11.30
2019-03-31T23:11:04.377Z,12.23
2019-03-31T23:13:35.925Z,6.83
2019-03-31T23:16:05.678Z,10.03
2019-03-31T23:18:36.300Z,9.40
2019-03-31T23:21:07.421Z,10.30
2019-03-31T23:23:38.139Z,4.47
2019-03-31T23:26:08.726Z,7.37
2019-03-31T23:28:47.390Z,8.77
2019-03-31T23:31:17.970Z,9.57
2019-03-31T23:33:47.306Z,8.83
2019-03-31T23:36:17.040Z,8.27
2019-03-31T23:38:47.350Z,12.47
2019-03-31T23:41:16.667Z,7.80
2019-03-31T23:43:46.030Z,8.60
2019-03-31T23:46:16.083Z,10.20
2019-03-31T23:48:46.229Z,9.03
2019-03-31T23:51:16.303Z,8.53
2019-03-31T23:53:46.473Z,15.47
2019-03-31T23:56:16.581Z,13.03
2019-03-31T23:58:46.325Z,9.43
